sensor_id;sensor_type;location;lat;lon;timestamp;pressure;altitude;pressure_sealevel;temperature;humidity
70133;BME280;57495;49.922;7.966;2023-04-08T00:00:30;100370.28;;;8.61;100.00
70133;BME280;57495;49.922;7.966;2023-04-08T00:02:32;100364.34;;;8.58;100.00
70133;BME280;57495;49.922;7.966;2023-04-08T00:04:33;100363.50;;;8.57;100.00
70133;BME280;57495;49.922;7.966;2023-04-08T00:06:35;100360.84;;;8.57;100.00
70133;BME280;57495;49.922;7.966;2023-04-08T00:08:38;100365.19;;;8.58;100.00
70133;BME280;57495;49.922;7.966;2023-04-08T00:10:39;100367.72;;;8.60;100.00
70133;BME280;57495;49.922;7.966;2023-04-08T00:12:40;100365.44;;;8.55;100.00
70133;BME280;57495;49.922;7.966;2023-04-08T00:14:42;100366.88;;;8.59;100.00
70133;BME280;57495;49.922;7.966;2023-04-08T00:16:45;100368.69;;;8.47;100.00
70133;BME280;57495;49.922;7.966;2023-04-08T00:18:46;100372.44;;;8.45;100.00
70133;BME280;57495;49.922;7.966;2023-04-08T00:20:48;100376.56;;;8.49;100.00
70133;BME280;57495;49.922;7.966;2023-04-08T00:22:49;100366.41;;;8.43;100.00
70133;BME280;57495;49.922;7.966;2023-04-08T00:24:51;100376.34;;;8.52;100.00
70133;BME280;57495;49.922;7.966;2023-04-08T00:26:52;100372.44;;;8.56;100.00
70133;BME280;57495;49.922;7.966;2023-04-08T00:28:53;100374.63;;;8.51;100.00
70133;BME280;57495;49.922;7.966;2023-04-08T00:30:55;100375.50;;;8.51;100.00
70133;BME280;57495;49.922;7.966;2023-04-08T00:32:58;100377.06;;;8.54;100.00
70133;BME280;57495;49.922;7.966;2023-04-08T00:35:00;100370.03;;;8.53;100.00
70133;BME280;57495;49.922;7.966;2023-04-08T00:37:02;100379.50;;;8.57;100.00
70133;BME280;57495;49.922;7.966;2023-04-08T00:39:04;100375.84;;;8.58;100.00
70133;BME280;57495;49.922;7.966;2023-04-08T00:41:06;100376.22;;;8.54;100.00
70133;BME280;57495;49.922;7.966;2023-04-08T00:43:08;100377.06;;;8.43;100.00
70133;BME280;57495;49.922;7.966;2023-04-08T00:45:10;100379.00;;;8.52;100.00
70133;BME280;57495;49.922;7.966;2023-04-08T00:47:12;100373.44;;;8.55;100.00
70133;BME280;57495;49.922;7.966;2023-04-08T00:49:15;100376.56;;;8.49;100.00
70133;BME280;57495;49.922;7.966;2023-04-08T00:51:16;100380.22;;;8.48;100.00
70133;BME280;57495;49.922;7.966;2023-04-08T00:53:18;100378.50;;;8.47;100.00
70133;BME280;57495;49.922;7.966;2023-04-08T00:55:20;100377.50;;;8.37;100.00
70133;BME280;57495;49.922;7.966;2023-04-08T00:57:21;100380.91;;;8.39;100.00
70133;BME280;57495;49.922;7.966;2023-04-08T00:59:23;100380.91;;;8.39;100.00
70133;BME280;57495;49.922;7.966;2023-04-08T01:01:30;100379.69;;;8.31;100.00
70133;BME280;57495;49.922;7.966;2023-04-08T01:03:41;100385.00;;;8.20;100.00
70133;BME280;57495;49.922;7.966;2023-04-08T01:05:53;100382.47;;;8.30;100.00
70133;BME280;57495;49.922;7.966;2023-04-08T01:07:58;100378.94;;;8.18;100.00
70133;BME280;57495;49.922;7.966;2023-04-08T01:10:05;100380.13;;;8.14;100.00
70133;BME280;57495;49.922;7.966;2023-04-08T01:12:09;100377.00;;;8.20;100.00
70133;BME280;57495;49.922;7.966;2023-04-08T01:14:16;100385.72;;;8.22;100.00
70133;BME280;57495;49.922;7.966;2023-04-08T01:16:20;100375.91;;;8.23;100.00
70133;BME280;57495;49.922;7.966;2023-04-08T01:18:23;100380.50;;;8.09;100.00
70133;BME280;57495;49.922;7.966;2023-04-08T01:20:26;100381.72;;;8.17;100.00
70133;BME280;57495;49.922;7.966;2023-04-08T01:22:36;100369.72;;;8.11;100.00
70133;BME280;57495;49.922;7.966;2023-04-08T01:24:43;100375.53;;;8.16;100.00
70133;BME280;57495;49.922;7.966;2023-04-08T01:26:47;100377.22;;;8.17;100.00
70133;BME280;57495;49.922;7.966;2023-04-08T01:28:51;100375.28;;;8.19;100.00
70133;BME280;57495;49.922;7.966;2023-04-08T01:30:55;100384.00;;;8.21;100.00
70133;BME280;57495;49.922;7.966;2023-04-08T01:32:58;100382.78;;;8.14;100.00
70133;BME280;57495;49.922;7.966;2023-04-08T01:35:02;100385.34;;;8.16;100.00
70133;BME280;57495;49.922;7.966;2023-04-08T01:37:05;100378.69;;;8.21;100.00
70133;BME280;57495;49.922;7.966;2023-04-08T01:39:08;100377.47;;;8.14;100.00
70133;BME280;57495;49.922;7.966;2023-04-08T01:41:10;100381.22;;;8.23;100.00
70133;BME280;57495;49.922;7.966;2023-04-08T01:43:15;100377.25;;;8.28;100.00
70133;BME280;57495;49.922;7.966;2023-04-08T01:45:17;100376.03;;;8.32;100.00
70133;BME280;57495;49.922;7.966;2023-04-08T01:47:20;100376.28;;;8.29;100.00
70133;BME280;57495;49.922;7.966;2023-04-08T01:49:22;100373.63;;;8.29;100.00
70133;BME280;57495;49.922;7.966;2023-04-08T01:51:25;100373.03;;;8.37;100.00
70133;BME280;57495;49.922;7.966;2023-04-08T01:53:26;100375.81;;;8.36;100.00
70133;BME280;57495;49.922;7.966;2023-04-08T01:55:28;100374.09;;;8.35;100.00
70133;BME280;57495;49.922;7.966;2023-04-08T01:57:31;100372.41;;;8.22;100.00
70133;BME280;57495;49.922;7.966;2023-04-08T01:59:37;100374.81;;;8.25;100.00
70133;BME280;57495;49.922;7.966;2023-04-08T02:01:41;100374.59;;;8.28;100.00
70133;BME280;57495;49.922;7.966;2023-04-08T02:03:45;100381.00;;;8.26;100.00
70133;BME280;57495;49.922;7.966;2023-04-08T02:05:47;100380.75;;;8.29;100.00
70133;BME280;57495;49.922;7.966;2023-04-08T02:07:49;100384.75;;;8.35;100.00
70133;BME280;57495;49.922;7.966;2023-04-08T02:09:51;100372.75;;;8.29;100.00
70133;BME280;57495;49.922;7.966;2023-04-08T02:11:52;100380.28;;;8.24;100.00
70133;BME280;57495;49.922;7.966;2023-04-08T02:13:54;100381.84;;;8.26;100.00
70133;BME280;57495;49.922;7.966;2023-04-08T02:16:03;100382.22;;;8.22;100.00
70133;BME280;57495;49.922;7.966;2023-04-08T02:18:11;100377.00;;;8.20;100.00
70133;BME280;57495;49.922;7.966;2023-04-08T02:20:16;100378.69;;;8.21;100.00
70133;BME280;57495;49.922;7.966;2023-04-08T02:22:22;100383.28;;;8.19;100.00
70133;BME280;57495;49.922;7.966;2023-04-08T02:24:26;100387.66;;;8.20;100.00
70133;BME280;57495;49.922;7.966;2023-04-08T02:26:32;100384.50;;;8.26;100.00
70133;BME280;57495;49.922;7.966;2023-04-08T02:28:34;100389.72;;;8.28;100.00
70133;BME280;57495;49.922;7.966;2023-04-08T02:30:36;100393.34;;;8.27;100.00
70133;BME280;57495;49.922;7.966;2023-04-08T02:32:43;100389.50;;;8.31;100.00
70133;BME280;57495;49.922;7.966;2023-04-08T02:34:45;100388.00;;;8.27;100.00
70133;BME280;57495;49.922;7.966;2023-04-08T02:36:48;100383.31;;;8.30;100.00
70133;BME280;57495;49.922;7.966;2023-04-08T02:38:50;100386.69;;;8.32;100.00
70133;BME280;57495;49.922;7.966;2023-04-08T02:40:51;100389.25;;;8.34;100.00
70133;BME280;57495;49.922;7.966;2023-04-08T02:42:53;100386.94;;;8.29;100.00
70133;BME280;57495;49.922;7.966;2023-04-08T02:44:56;100388.50;;;8.21;100.00
70133;BME280;57495;49.922;7.966;2023-04-08T02:46:57;100385.84;;;8.32;100.00
70133;BME280;57495;49.922;7.966;2023-04-08T02:49:00;100383.78;;;8.24;100.00
70133;BME280;57495;49.922;7.966;2023-04-08T02:51:01;100380.63;;;8.19;100.00
70133;BME280;57495;49.922;7.966;2023-04-08T02:53:03;100383.66;;;8.26;100.00
70133;BME280;57495;49.922;7.966;2023-04-08T02:55:05;100385.47;;;8.25;100.00
70133;BME280;57495;49.922;7.966;2023-04-08T02:57:09;100379.91;;;8.17;100.00
70133;BME280;57495;49.922;7.966;2023-04-08T02:59:10;100383.78;;;8.24;100.00
70133;BME280;57495;49.922;7.966;2023-04-08T03:01:11;100396.63;;;8.30;100.00
70133;BME280;57495;49.922;7.966;2023-04-08T03:03:13;100386.94;;;8.29;100.00
70133;BME280;57495;49.922;7.966;2023-04-08T03:05:16;100388.00;;;8.27;100.00
70133;BME280;57495;49.922;7.966;2023-04-08T03:07:17;100389.72;;;8.28;100.00
70133;BME280;57495;49.922;7.966;2023-04-08T03:09:18;100392.50;;;8.26;100.00
70133;BME280;57495;49.922;7.966;2023-04-08T03:11:20;100396.38;;;8.22;100.00
70133;BME280;57495;49.922;7.966;2023-04-08T03:13:22;100387.41;;;8.23;100.00
70133;BME280;57495;49.922;7.966;2023-04-08T03:15:23;100390.94;;;8.24;100.00
70133;BME280;57495;49.922;7.966;2023-04-08T03:17:25;100397.34;;;8.21;100.00
70133;BME280;57495;49.922;7.966;2023-04-08T03:19:26;100395.53;;;8.22;100.00
70133;BME280;57495;49.922;7.966;2023-04-08T03:21:29;100394.44;;;8.24;100.00
70133;BME280;57495;49.922;7.966;2023-04-08T03:23:31;100395.28;;;8.25;100.00
70133;BME280;57495;49.922;7.966;2023-04-08T03:25:33;100396.59;;;8.19;100.00
70133;BME280;57495;49.922;7.966;2023-04-08T03:27:34;100400.50;;;8.26;100.00
70133;BME280;57495;49.922;7.966;2023-04-08T03:29:35;100396.47;;;8.09;100.00
70133;BME280;57495;49.922;7.966;2023-04-08T03:31:37;100398.44;;;8.19;100.00
70133;BME280;57495;49.922;7.966;2023-04-08T03:33:38;100400.47;;;8.15;100.00
70133;BME280;57495;49.922;7.966;2023-04-08T03:35:40;100400.00;;;8.21;100.00
70133;BME280;57495;49.922;7.966;2023-04-08T03:37:42;100408.09;;;8.20;100.00
70133;BME280;57495;49.922;7.966;2023-04-08T03:39:44;100408.72;;;8.23;100.00
70133;BME280;57495;49.922;7.966;2023-04-08T03:41:45;100406.66;;;8.27;100.00
70133;BME280;57495;49.922;7.966;2023-04-08T03:43:47;100407.03;;;8.22;100.00
70133;BME280;57495;49.922;7.966;2023-04-08T03:45:48;100410.66;;;8.21;100.00
70133;BME280;57495;49.922;7.966;2023-04-08T03:47:50;100412.81;;;8.16;100.00
70133;BME280;57495;49.922;7.966;2023-04-08T03:49:51;100417.44;;;8.25;100.00
70133;BME280;57495;49.922;7.966;2023-04-08T03:51:53;100414.53;;;8.28;100.00
70133;BME280;57495;49.922;7.966;2023-04-08T03:53:56;100409.69;;;8.22;100.00
70133;BME280;57495;49.922;7.966;2023-04-08T03:55:57;100421.69;;;8.17;100.00
70133;BME280;57495;49.922;7.966;2023-04-08T03:57:59;100405.59;;;8.18;100.00
70133;BME280;57495;49.922;7.966;2023-04-08T04:00:00;100406.38;;;7.96;100.00
70133;BME280;57495;49.922;7.966;2023-04-08T04:02:02;100410.72;;;7.97;100.00
70133;BME280;57495;49.922;7.966;2023-04-08T04:04:03;100415.44;;;8.05;100.00
70133;BME280;57495;49.922;7.966;2023-04-08T04:06:05;100413.53;;;8.07;100.00
70133;BME280;57495;49.922;7.966;2023-04-08T04:08:07;100411.84;;;8.06;100.00
70133;BME280;57495;49.922;7.966;2023-04-08T04:10:10;100408.16;;;7.96;100.00
70133;BME280;57495;49.922;7.966;2023-04-08T04:12:12;100411.19;;;7.91;100.00
70133;BME280;57495;49.922;7.966;2023-04-08T04:14:13;100414.22;;;7.98;100.00
70133;BME280;57495;49.922;7.966;2023-04-08T04:16:15;100401.38;;;7.91;100.00
70133;BME280;57495;49.922;7.966;2023-04-08T04:18:16;100419.41;;;7.88;100.00
70133;BME280;57495;49.922;7.966;2023-04-08T04:20:18;100416.69;;;7.77;100.00
70133;BME280;57495;49.922;7.966;2023-04-08T04:22:20;100410.53;;;7.76;100.00
70133;BME280;57495;49.922;7.966;2023-04-08T04:24:22;100415.69;;;7.66;100.00
70133;BME280;57495;49.922;7.966;2023-04-08T04:26:25;100412.63;;;7.60;100.00
70133;BME280;57495;49.922;7.966;2023-04-08T04:28:26;100419.41;;;7.64;100.00
70133;BME280;57495;49.922;7.966;2023-04-08T04:30:28;100414.34;;;7.61;100.00
70133;BME280;57495;49.922;7.966;2023-04-08T04:32:29;100415.81;;;7.65;100.00
70133;BME280;57495;49.922;7.966;2023-04-08T04:34:31;100419.59;;;7.49;100.00
70133;BME280;57495;49.922;7.966;2023-04-08T04:36:32;100419.59;;;7.49;100.00
70133;BME280;57495;49.922;7.966;2023-04-08T04:38:34;100412.59;;;7.48;100.00
70133;BME280;57495;49.922;7.966;2023-04-08T04:40:36;100429.59;;;7.46;100.00
70133;BME280;57495;49.922;7.966;2023-04-08T04:42:38;100421.28;;;7.50;100.00
70133;BME280;57495;49.922;7.966;2023-04-08T04:44:40;100424.41;;;7.44;100.00
70133;BME280;57495;49.922;7.966;2023-04-08T04:46:41;100424.69;;;7.52;100.00
70133;BME280;57495;49.922;7.966;2023-04-08T04:48:43;100432.09;;;7.36;100.00
70133;BME280;57495;49.922;7.966;2023-04-08T04:50:53;100425.47;;;7.42;100.00
70133;BME280;57495;49.922;7.966;2023-04-08T04:52:55;100430.06;;;7.40;100.00
70133;BME280;57495;49.922;7.966;2023-04-08T04:54:56;100434.47;;;7.28;100.00
70133;BME280;57495;49.922;7.966;2023-04-08T04:56:58;100431.81;;;7.28;100.00
70133;BME280;57495;49.922;7.966;2023-04-08T04:59:01;100438.59;;;7.32;100.00
70133;BME280;57495;49.922;7.966;2023-04-08T05:01:04;100437.56;;;7.22;100.00
70133;BME280;57495;49.922;7.966;2023-04-08T05:03:06;100438.66;;;7.19;100.00
70133;BME280;57495;49.922;7.966;2023-04-08T05:05:08;100441.34;;;7.06;100.00
70133;BME280;57495;49.922;7.966;2023-04-08T05:07:09;100443.69;;;6.98;100.00
70133;BME280;57495;49.922;7.966;2023-04-08T05:09:11;100434.84;;;6.97;100.00
70133;BME280;57495;49.922;7.966;2023-04-08T05:11:12;100432.75;;;6.90;100.00
70133;BME280;57495;49.922;7.966;2023-04-08T05:13:13;100440.72;;;6.90;100.00
70133;BME280;57495;49.922;7.966;2023-04-08T05:15:16;100448.31;;;6.83;100.00
70133;BME280;57495;49.922;7.966;2023-04-08T05:17:18;100446.78;;;6.79;100.00
70133;BME280;57495;49.922;7.966;2023-04-08T05:19:19;100452.53;;;6.86;100.00
70133;BME280;57495;49.922;7.966;2023-04-08T05:21:21;100455.72;;;6.91;100.00
70133;BME280;57495;49.922;7.966;2023-04-08T05:23:23;100455.50;;;6.94;100.00
70133;BME280;57495;49.922;7.966;2023-04-08T05:25:24;100449.44;;;6.92;100.00
70133;BME280;57495;49.922;7.966;2023-04-08T05:27:26;100460.69;;;6.95;100.00
70133;BME280;57495;49.922;7.966;2023-04-08T05:29:27;100460.59;;;6.97;100.00
70133;BME280;57495;49.922;7.966;2023-04-08T05:31:30;100457.19;;;6.95;100.00
70133;BME280;57495;49.922;7.966;2023-04-08T05:33:31;100466.91;;;6.96;100.00
70133;BME280;57495;49.922;7.966;2023-04-08T05:35:34;100459.31;;;6.90;100.00
70133;BME280;57495;49.922;7.966;2023-04-08T05:37:35;100474.53;;;6.88;100.00
70133;BME280;57495;49.922;7.966;2023-04-08T05:39:37;100469.97;;;6.90;100.00
70133;BME280;57495;49.922;7.966;2023-04-08T05:41:38;100466.56;;;7.01;100.00
70133;BME280;57495;49.922;7.966;2023-04-08T05:43:40;100467.47;;;7.12;100.00
70133;BME280;57495;49.922;7.966;2023-04-08T05:45:41;100472.41;;;7.06;100.00
70133;BME280;57495;49.922;7.966;2023-04-08T05:47:44;100471.56;;;7.05;100.00
70133;BME280;57495;49.922;7.966;2023-04-08T05:49:45;100469.84;;;7.04;100.00
70133;BME280;57495;49.922;7.966;2023-04-08T05:51:47;100468.66;;;7.08;100.00
70133;BME280;57495;49.922;7.966;2023-04-08T05:53:48;100474.06;;;7.20;100.00
70133;BME280;57495;49.922;7.966;2023-04-08T05:55:49;100473.19;;;7.32;100.00
70133;BME280;57495;49.922;7.966;2023-04-08T05:57:51;100475.19;;;7.41;100.00
70133;BME280;57495;49.922;7.966;2023-04-08T05:59:52;100476.22;;;7.51;100.00
70133;BME280;57495;49.922;7.966;2023-04-08T06:01:54;100473.25;;;7.43;100.00
70133;BME280;57495;49.922;7.966;2023-04-08T06:03:57;100477.97;;;7.64;100.00
70133;BME280;57495;49.922;7.966;2023-04-08T06:05:58;100480.13;;;7.59;100.00
70133;BME280;57495;49.922;7.966;2023-04-08T06:08:00;100487.84;;;7.74;100.00
70133;BME280;57495;49.922;7.966;2023-04-08T06:10:01;100484.84;;;7.79;100.00
70133;BME280;57495;49.922;7.966;2023-04-08T06:12:04;100487.72;;;8.00;100.00
70133;BME280;57495;49.922;7.966;2023-04-08T06:14:05;100486.53;;;8.04;100.00
70133;BME280;57495;49.922;7.966;2023-04-08T06:16:11;100485.31;;;8.08;100.00
70133;BME280;57495;49.922;7.966;2023-04-08T06:18:13;100488.53;;;8.25;99.93
70133;BME280;57495;49.922;7.966;2023-04-08T06:20:15;100483.56;;;8.20;99.41
70133;BME280;57495;49.922;7.966;2023-04-08T06:22:17;100490.38;;;8.36;98.88
70133;BME280;57495;49.922;7.966;2023-04-08T06:24:18;100487.50;;;8.39;98.73
70133;BME280;57495;49.922;7.966;2023-04-08T06:26:20;100491.56;;;8.56;98.79
70133;BME280;57495;49.922;7.966;2023-04-08T06:28:21;100491.44;;;8.57;98.03
70133;BME280;57495;49.922;7.966;2023-04-08T06:30:23;100492.19;;;8.70;98.03
70133;BME280;57495;49.922;7.966;2023-04-08T06:32:24;100491.81;;;8.86;97.38
70133;BME280;57495;49.922;7.966;2023-04-08T06:34:26;100496.31;;;8.86;96.51
70133;BME280;57495;49.922;7.966;2023-04-08T06:36:28;100497.03;;;8.88;96.61
70133;BME280;57495;49.922;7.966;2023-04-08T06:38:30;100490.75;;;9.00;97.11
70133;BME280;57495;49.922;7.966;2023-04-08T06:40:32;100487.59;;;9.06;95.55
70133;BME280;57495;49.922;7.966;2023-04-08T06:42:33;100502.03;;;9.15;95.39
70133;BME280;57495;49.922;7.966;2023-04-08T06:44:35;100503.75;;;9.16;95.07
70133;BME280;57495;49.922;7.966;2023-04-08T06:46:36;100499.09;;;9.41;95.67
70133;BME280;57495;49.922;7.966;2023-04-08T06:48:37;100506.50;;;9.37;94.39
70133;BME280;57495;49.922;7.966;2023-04-08T06:50:39;100506.47;;;9.60;94.23
70133;BME280;57495;49.922;7.966;2023-04-08T06:52:43;100511.31;;;9.55;93.48
70133;BME280;57495;49.922;7.966;2023-04-08T06:54:44;100515.72;;;9.56;92.18
70133;BME280;57495;49.922;7.966;2023-04-08T06:56:46;100510.72;;;9.62;92.39
70133;BME280;57495;49.922;7.966;2023-04-08T06:58:47;100514.47;;;9.71;90.67
70133;BME280;57495;49.922;7.966;2023-04-08T07:00:49;100512.38;;;9.75;90.99
70133;BME280;57495;49.922;7.966;2023-04-08T07:02:51;100518.34;;;9.67;90.90
70133;BME280;57495;49.922;7.966;2023-04-08T07:04:52;100517.25;;;9.70;90.96
70133;BME280;57495;49.922;7.966;2023-04-08T07:06:53;100517.09;;;9.82;90.13
70133;BME280;57495;49.922;7.966;2023-04-08T07:08:56;100519.50;;;9.97;89.31
70133;BME280;57495;49.922;7.966;2023-04-08T07:10:58;100520.72;;;9.93;88.84
70133;BME280;57495;49.922;7.966;2023-04-08T07:12:59;100514.56;;;10.13;88.13
70133;BME280;57495;49.922;7.966;2023-04-08T07:15:00;100518.22;;;10.12;87.58
70133;BME280;57495;49.922;7.966;2023-04-08T07:17:03;100516.72;;;10.31;86.15
70133;BME280;57495;49.922;7.966;2023-04-08T07:19:05;100522.66;;;10.34;86.61
70133;BME280;57495;49.922;7.966;2023-04-08T07:21:06;100519.06;;;10.45;85.86
70133;BME280;57495;49.922;7.966;2023-04-08T07:23:08;100523.25;;;10.80;85.68
70133;BME280;57495;49.922;7.966;2023-04-08T07:25:10;100526.38;;;10.85;84.27
70133;BME280;57495;49.922;7.966;2023-04-08T07:27:12;100523.06;;;10.72;83.21
70133;BME280;57495;49.922;7.966;2023-04-08T07:29:13;100518.94;;;10.68;82.58
70133;BME280;57495;49.922;7.966;2023-04-08T07:31:16;100528.97;;;10.96;82.49
70133;BME280;57495;49.922;7.966;2023-04-08T07:33:18;100523.41;;;11.09;82.41
70133;BME280;57495;49.922;7.966;2023-04-08T07:35:19;100522.00;;;11.05;82.33
70133;BME280;57495;49.922;7.966;2023-04-08T07:37:23;100518.09;;;11.19;81.26
70133;BME280;57495;49.922;7.966;2023-04-08T07:39:24;100527.28;;;11.26;81.74
70133;BME280;57495;49.922;7.966;2023-04-08T07:41:27;100527.63;;;11.43;81.02
70133;BME280;57495;49.922;7.966;2023-04-08T07:43:30;100532.84;;;11.44;80.51
70133;BME280;57495;49.922;7.966;2023-04-08T07:45:31;100534.41;;;11.47;79.92
70133;BME280;57495;49.922;7.966;2023-04-08T07:47:33;100532.88;;;11.54;79.42
70133;BME280;57495;49.922;7.966;2023-04-08T07:49:34;100532.41;;;11.89;81.67
70133;BME280;57495;49.922;7.966;2023-04-08T07:51:36;100521.31;;;11.53;78.39
70133;BME280;57495;49.922;7.966;2023-04-08T07:53:38;100533.91;;;11.72;78.40
70133;BME280;57495;49.922;7.966;2023-04-08T07:55:39;100532.47;;;12.09;78.53
70133;BME280;57495;49.922;7.966;2023-04-08T07:57:43;100534.00;;;12.11;77.69
70133;BME280;57495;49.922;7.966;2023-04-08T07:59:45;100533.44;;;12.17;75.88
70133;BME280;57495;49.922;7.966;2023-04-08T08:01:46;100534.72;;;12.43;77.20
70133;BME280;57495;49.922;7.966;2023-04-08T08:03:48;100544.59;;;12.23;78.40
70133;BME280;57495;49.922;7.966;2023-04-08T08:05:50;100533.84;;;12.32;77.40
70133;BME280;57495;49.922;7.966;2023-04-08T08:07:51;100540.38;;;12.49;76.68
70133;BME280;57495;49.922;7.966;2023-04-08T08:09:52;100547.41;;;12.02;76.05
70133;BME280;57495;49.922;7.966;2023-04-08T08:11:54;100542.34;;;11.58;77.43
70133;BME280;57495;49.922;7.966;2023-04-08T08:13:57;100544.75;;;11.61;77.25
70133;BME280;57495;49.922;7.966;2023-04-08T08:15:58;100543.84;;;11.51;77.84
70133;BME280;57495;49.922;7.966;2023-04-08T08:17:59;100551.22;;;11.58;77.83
70133;BME280;57495;49.922;7.966;2023-04-08T08:20:01;100558.84;;;11.63;78.95
70133;BME280;57495;49.922;7.966;2023-04-08T08:22:04;100553.81;;;11.79;77.58
70133;BME280;57495;49.922;7.966;2023-04-08T08:24:05;100560.59;;;11.84;78.71
70133;BME280;57495;49.922;7.966;2023-04-08T08:26:08;100558.34;;;11.79;78.61
70133;BME280;57495;49.922;7.966;2023-04-08T08:28:10;100559.41;;;11.57;78.75
70133;BME280;57495;49.922;7.966;2023-04-08T08:30:12;100563.59;;;11.50;79.71
70133;BME280;57495;49.922;7.966;2023-04-08T08:32:14;100565.28;;;11.51;78.91
70133;BME280;57495;49.922;7.966;2023-04-08T08:34:16;100566.91;;;11.32;79.30
70133;BME280;57495;49.922;7.966;2023-04-08T08:36:17;100569.22;;;11.47;78.94
70133;BME280;57495;49.922;7.966;2023-04-08T08:38:19;100573.97;;;11.33;81.42
70133;BME280;57495;49.922;7.966;2023-04-08T08:40:20;100577.16;;;11.58;79.36
70133;BME280;57495;49.922;7.966;2023-04-08T08:42:22;100581.94;;;11.54;77.42
70133;BME280;57495;49.922;7.966;2023-04-08T08:44:24;100580.16;;;11.65;78.86
70133;BME280;57495;49.922;7.966;2023-04-08T08:46:27;100582.16;;;11.82;79.04
70133;BME280;57495;49.922;7.966;2023-04-08T08:48:30;100579.97;;;11.97;77.43
70133;BME280;57495;49.922;7.966;2023-04-08T08:50:31;100589.47;;;12.11;77.33
70133;BME280;57495;49.922;7.966;2023-04-08T08:52:33;100586.13;;;11.88;74.43
70133;BME280;57495;49.922;7.966;2023-04-08T08:54:34;100583.09;;;11.92;74.42
70133;BME280;57495;49.922;7.966;2023-04-08T08:56:36;100578.91;;;11.78;73.32
70133;BME280;57495;49.922;7.966;2023-04-08T08:58:37;100585.63;;;11.63;74.14
70133;BME280;57495;49.922;7.966;2023-04-08T09:00:40;100584.13;;;11.70;75.58
70133;BME280;57495;49.922;7.966;2023-04-08T09:02:45;100584.88;;;11.92;76.33
70133;BME280;57495;49.922;7.966;2023-04-08T09:04:55;100585.97;;;11.79;74.56
70133;BME280;57495;49.922;7.966;2023-04-08T09:07:08;100599.88;;;11.94;75.56
70133;BME280;57495;49.922;7.966;2023-04-08T09:09:10;100593.47;;;11.86;74.76
70133;BME280;57495;49.922;7.966;2023-04-08T09:11:13;100596.69;;;11.79;75.03
70133;BME280;57495;49.922;7.966;2023-04-08T09:13:15;100600.00;;;11.93;75.01
70133;BME280;57495;49.922;7.966;2023-04-08T09:15:16;100602.19;;;11.78;75.33
70133;BME280;57495;49.922;7.966;2023-04-08T09:17:30;100608.03;;;11.93;74.56
70133;BME280;57495;49.922;7.966;2023-04-08T09:19:34;100604.88;;;11.78;74.20
70133;BME280;57495;49.922;7.966;2023-04-08T09:21:36;100602.63;;;11.83;74.31
70133;BME280;57495;49.922;7.966;2023-04-08T09:23:42;100607.53;;;11.78;73.77
70133;BME280;57495;49.922;7.966;2023-04-08T09:25:43;100614.84;;;11.66;75.46
70133;BME280;57495;49.922;7.966;2023-04-08T09:27:45;100612.66;;;11.50;74.55
70133;BME280;57495;49.922;7.966;2023-04-08T09:29:46;100617.44;;;11.47;77.45
70133;BME280;57495;49.922;7.966;2023-04-08T09:31:52;100610.09;;;11.49;74.70
70133;BME280;57495;49.922;7.966;2023-04-08T09:33:55;100606.38;;;11.40;75.23
70133;BME280;57495;49.922;7.966;2023-04-08T09:35:58;100612.88;;;11.37;75.42
70133;BME280;57495;49.922;7.966;2023-04-08T09:37:59;100616.00;;;11.43;75.52
70133;BME280;57495;49.922;7.966;2023-04-08T09:40:01;100612.34;;;11.44;74.58
70133;BME280;57495;49.922;7.966;2023-04-08T09:42:04;100618.22;;;11.37;76.36
70133;BME280;57495;49.922;7.966;2023-04-08T09:44:08;100621.16;;;11.34;75.25
70133;BME280;57495;49.922;7.966;2023-04-08T09:46:10;100627.38;;;11.35;75.83
70133;BME280;57495;49.922;7.966;2023-04-08T09:48:16;100629.03;;;11.26;75.86
70133;BME280;57495;49.922;7.966;2023-04-08T09:50:20;100634.13;;;11.29;75.09
70133;BME280;57495;49.922;7.966;2023-04-08T09:52:29;100628.91;;;11.28;75.87
70133;BME280;57495;49.922;7.966;2023-04-08T09:54:41;100635.34;;;11.25;76.09
70133;BME280;57495;49.922;7.966;2023-04-08T09:56:48;100629.19;;;11.34;75.12
70133;BME280;57495;49.922;7.966;2023-04-08T09:58:56;100630.28;;;11.22;74.47
70133;BME280;57495;49.922;7.966;2023-04-08T10:00:59;100639.34;;;11.10;74.72
70133;BME280;57495;49.922;7.966;2023-04-08T10:03:08;100636.81;;;11.29;75.16
70133;BME280;57495;49.922;7.966;2023-04-08T10:05:11;100631.63;;;11.37;74.73
70133;BME280;57495;49.922;7.966;2023-04-08T10:07:13;100639.06;;;11.34;75.42
70133;BME280;57495;49.922;7.966;2023-04-08T10:09:17;100631.38;;;11.40;75.04
70133;BME280;57495;49.922;7.966;2023-04-08T10:11:18;100637.50;;;11.31;77.05
70133;BME280;57495;49.922;7.966;2023-04-08T10:13:20;100633.50;;;11.47;75.45
70133;BME280;57495;49.922;7.966;2023-04-08T10:15:26;100639.06;;;11.55;75.29
70133;BME280;57495;49.922;7.966;2023-04-08T10:17:28;100636.50;;;11.53;75.92
70133;BME280;57495;49.922;7.966;2023-04-08T10:19:36;100633.63;;;11.45;73.49
70133;BME280;57495;49.922;7.966;2023-04-08T10:21:42;100633.69;;;11.55;75.57
70133;BME280;57495;49.922;7.966;2023-04-08T10:23:53;100636.31;;;11.45;73.89
70133;BME280;57495;49.922;7.966;2023-04-08T10:25:56;100640.88;;;11.54;73.97
70133;BME280;57495;49.922;7.966;2023-04-08T10:27:58;100634.13;;;11.60;74.31
70133;BME280;57495;49.922;7.966;2023-04-08T10:29:59;100633.53;;;11.56;73.33
70133;BME280;57495;49.922;7.966;2023-04-08T10:32:01;100631.97;;;11.85;75.51
70133;BME280;57495;49.922;7.966;2023-04-08T10:34:14;100637.88;;;11.78;74.62
70133;BME280;57495;49.922;7.966;2023-04-08T10:36:16;100629.81;;;12.09;76.49
70133;BME280;57495;49.922;7.966;2023-04-08T10:38:18;100632.94;;;12.24;75.43
70133;BME280;57495;49.922;7.966;2023-04-08T10:40:20;100632.72;;;12.76;72.19